Disclaimer

Please do not use the information listed here in-flight or in-navigation, as they are not provided to us by the airports but are provided by volunteers, so they might be outdated.

Search


Regions


Airport information page

Radio informations:
RDO - 125.9 MHz

Airport informations:
Latitude: 10° 47' 10.95" S
Longitude: 065° 17' 05.25" W
Elevation: 478 feet - 146 meters
Operating hours: Remarks
Operating agency: Civil government, landing fees and diplomatic clearance may be required
Timezone: UTC-4(-3DT)
Fuel: N/A

Runway information:
17/35 - 5889 x 148 feet< - >1795 x 45 meters

Recent METARs:
SBGM 201900Z 16005KT 9999 FEW020 BKN027 29/24 Q1009
SBGM 201900Z 16005KT 9999 FEW020 BKN027 29/24 Q1009
SBGM 201900Z 16005KT 9999 FEW020 BKN027 29/24 Q1009

Airport on the map: